createdAt,value
2019-01-30T00:01:21.983Z,34.13
2019-01-30T00:03:49.866Z,31.23
2019-01-30T00:06:17.527Z,32.77
2019-01-30T00:08:45.630Z,38.93
2019-01-30T00:11:13.102Z,33.93
2019-01-30T00:13:40.637Z,35.50
2019-01-30T00:16:08.258Z,31.40
2019-01-30T00:18:36.415Z,36.77
2019-01-30T00:21:04.034Z,34.03
2019-01-30T00:23:34.879Z,33.00
2019-01-30T00:26:02.783Z,30.50
2019-01-30T00:28:30.327Z,32.17
2019-01-30T00:30:58.149Z,33.17
2019-01-30T00:33:25.798Z,36.17
2019-01-30T00:35:59.301Z,37.97
2019-01-30T00:38:27.399Z,34.10
2019-01-30T00:41:01.263Z,35.07
2019-01-30T00:43:29.196Z,37.50
2019-01-30T00:45:57.272Z,31.47
2019-01-30T00:48:24.763Z,32.97
2019-01-30T00:50:53.686Z,33.37
2019-01-30T00:53:21.499Z,36.73
2019-01-30T00:55:49.193Z,31.23
2019-01-30T00:58:17.102Z,34.73
2019-01-30T01:00:44.927Z,31.77
2019-01-30T01:03:13.407Z,37.03
2019-01-30T01:05:41.422Z,36.20
2019-01-30T01:08:09.219Z,31.53
2019-01-30T01:10:37.420Z,39.27
2019-01-30T01:13:05.288Z,43.03
2019-01-30T01:15:34.465Z,35.50
2019-01-30T01:18:02.775Z,34.87
2019-01-30T01:20:30.475Z,32.50
2019-01-30T01:22:58.197Z,37.17
2019-01-30T01:25:25.843Z,34.30
2019-01-30T01:27:53.331Z,32.67
2019-01-30T01:30:25.721Z,35.23
2019-01-30T01:32:55.664Z,37.30
2019-01-30T01:35:23.981Z,37.17
2019-01-30T01:37:51.868Z,36.10
2019-01-30T01:40:21.427Z,38.27
2019-01-30T01:42:49.209Z,36.60
2019-01-30T01:45:18.957Z,29.17
2019-01-30T01:47:47.060Z,30.00
2019-01-30T01:50:16.959Z,30.93
2019-01-30T01:52:45.019Z,35.63
2019-01-30T01:55:12.777Z,37.37
2019-01-30T01:57:40.505Z,38.20
2019-01-30T02:00:11.239Z,41.07
2019-01-30T02:02:38.705Z,33.10
2019-01-30T02:05:08.669Z,34.60
2019-01-30T02:07:36.760Z,34.80
2019-01-30T02:10:06.016Z,29.37
2019-01-30T02:12:33.840Z,32.93
2019-01-30T02:15:01.715Z,35.43
2019-01-30T02:17:29.511Z,32.93
2019-01-30T02:19:58.733Z,33.60
2019-01-30T02:22:56.952Z,30.97
2019-01-30T02:25:24.898Z,36.03
2019-01-30T02:27:52.639Z,30.37
2019-01-30T02:30:22.304Z,32.00
2019-01-30T02:32:52.620Z,34.67
2019-01-30T02:35:20.139Z,35.57
2019-01-30T02:37:47.996Z,33.40
2019-01-30T02:40:16.961Z,35.60
2019-01-30T02:42:44.832Z,36.53
2019-01-30T02:45:14.439Z,33.00
2019-01-30T02:47:41.913Z,31.93
2019-01-30T02:50:11.891Z,35.13
2019-01-30T02:52:43.379Z,38.87
2019-01-30T02:55:12.475Z,34.40
2019-01-30T02:57:39.948Z,35.90
2019-01-30T03:00:19.134Z,36.27
2019-01-30T03:02:49.460Z,37.37
2019-01-30T03:05:17.263Z,32.70
2019-01-30T03:07:44.775Z,38.43
2019-01-30T03:10:16.597Z,32.17
2019-01-30T03:12:44.114Z,31.97
2019-01-30T03:15:12.038Z,33.50
2019-01-30T03:17:40.095Z,38.83
2019-01-30T03:22:48.327Z,35.57
2019-01-30T03:25:16.726Z,32.67
2019-01-30T03:27:44.275Z,35.13
2019-01-30T03:30:23.414Z,35.40
2019-01-30T03:32:50.925Z,34.93
2019-01-30T03:35:18.950Z,34.97
2019-01-30T03:37:46.746Z,34.33
2019-01-30T03:40:15.892Z,33.50
2019-01-30T03:42:43.382Z,35.63
2019-01-30T03:45:11.750Z,33.87
2019-01-30T03:47:39.284Z,36.13
2019-01-30T03:50:07.962Z,34.13
2019-01-30T03:52:35.734Z,34.93
2019-01-30T03:55:04.288Z,35.63
2019-01-30T03:57:36.060Z,31.40
2019-01-30T04:00:05.388Z,32.67
2019-01-30T04:02:32.957Z,31.70
2019-01-30T04:05:00.737Z,30.90
2019-01-30T04:07:28.368Z,33.03
2019-01-30T04:09:56.440Z,31.47
2019-01-30T04:12:23.902Z,29.97
2019-01-30T04:14:51.750Z,33.87
2019-01-30T04:17:19.462Z,34.67
2019-01-30T04:19:47.028Z,36.50
2019-01-30T04:22:14.752Z,30.87
2019-01-30T04:24:42.514Z,29.47
2019-01-30T04:27:16.984Z,31.80
2019-01-30T04:29:44.567Z,30.00
2019-01-30T04:32:14.810Z,29.47
2019-01-30T04:34:42.323Z,33.37
2019-01-30T04:37:10.131Z,36.17
2019-01-30T04:39:37.643Z,32.67
2019-01-30T04:42:05.146Z,33.43
2019-01-30T04:44:32.563Z,34.23
2019-01-30T04:47:00.047Z,33.87
2019-01-30T04:49:27.579Z,32.80
2019-01-30T04:51:55.412Z,33.10
2019-01-30T04:54:22.874Z,41.40
2019-01-30T04:56:50.376Z,32.80
2019-01-30T04:59:18.900Z,37.30
2019-01-30T05:01:49.838Z,36.57
2019-01-30T05:04:16.039Z,33.57
2019-01-30T05:06:43.545Z,34.37
2019-01-30T05:09:11.322Z,28.33
2019-01-30T05:11:40.088Z,28.83
2019-01-30T05:14:07.945Z,35.37
2019-01-30T05:16:54.818Z,30.90
2019-01-30T05:19:22.531Z,30.30
2019-01-30T05:21:51.344Z,39.60
2019-01-30T05:24:18.816Z,31.07
2019-01-30T05:26:46.535Z,34.07
2019-01-30T05:29:14.275Z,30.00
2019-01-30T05:31:42.089Z,39.77
2019-01-30T05:34:09.538Z,33.40
2019-01-30T05:36:36.972Z,35.17
2019-01-30T05:39:08.008Z,35.67
2019-01-30T05:41:36.035Z,38.50
2019-01-30T05:44:03.689Z,39.37
2019-01-30T05:46:31.818Z,37.53
2019-01-30T05:48:59.283Z,41.90
2019-01-30T05:51:26.725Z,36.37
2019-01-30T05:53:54.188Z,38.00
2019-01-30T05:56:22.497Z,40.03
2019-01-30T05:58:51.959Z,43.03
2019-01-30T06:01:19.426Z,34.00
2019-01-30T06:03:47.713Z,39.43
2019-01-30T06:06:15.770Z,38.07
2019-01-30T06:08:43.496Z,36.77
2019-01-30T06:11:12.183Z,39.57
2019-01-30T06:13:39.717Z,36.60
2019-01-30T06:16:07.169Z,37.13
2019-01-30T06:18:35.236Z,37.57
2019-01-30T06:21:03.091Z,37.20
2019-01-30T06:23:30.845Z,39.73
2019-01-30T06:25:58.375Z,38.70
2019-01-30T06:28:29.203Z,40.77
2019-01-30T06:30:55.452Z,35.37
2019-01-30T06:33:22.984Z,37.27
2019-01-30T06:35:52.529Z,33.57
2019-01-30T06:38:20.359Z,33.77
2019-01-30T06:40:49.316Z,32.77
2019-01-30T06:43:17.063Z,35.10
2019-01-30T06:45:45.190Z,32.97
2019-01-30T06:48:12.792Z,31.73
2019-01-30T06:50:40.490Z,38.97
2019-01-30T06:53:08.003Z,34.47
2019-01-30T06:55:35.506Z,31.70
2019-01-30T06:58:03.182Z,36.37
2019-01-30T07:00:30.983Z,30.03
2019-01-30T07:02:58.850Z,29.93
2019-01-30T07:05:26.290Z,33.40
2019-01-30T07:07:53.794Z,34.67
2019-01-30T07:10:23.450Z,31.50
2019-01-30T07:12:51.410Z,34.97
2019-01-30T07:15:18.848Z,32.60
2019-01-30T07:17:46.374Z,29.90
2019-01-30T07:20:14.060Z,34.90
2019-01-30T07:22:41.792Z,32.70
2019-01-30T07:25:10.362Z,31.93
2019-01-30T07:27:37.816Z,36.53
2019-01-30T07:30:10.066Z,31.40
2019-01-30T07:32:42.313Z,36.13
2019-01-30T07:35:07.059Z,29.03
2019-01-30T07:37:34.495Z,29.90
2019-01-30T07:40:01.990Z,36.37
2019-01-30T07:42:29.469Z,36.67
2019-01-30T07:44:56.951Z,33.33
2019-01-30T07:47:24.428Z,34.20
2019-01-30T07:49:52.428Z,31.27
2019-01-30T07:52:20.311Z,31.17
2019-01-30T07:54:47.851Z,29.47
2019-01-30T07:57:15.416Z,33.47
2019-01-30T07:59:43.168Z,30.17
2019-01-30T08:02:10.603Z,32.30
2019-01-30T08:04:38.104Z,35.53
2019-01-30T08:07:05.527Z,34.50
2019-01-30T08:09:33.053Z,33.73
2019-01-30T08:12:00.459Z,32.57
2019-01-30T08:14:28.168Z,34.30
2019-01-30T08:16:55.934Z,35.77
2019-01-30T08:19:23.353Z,41.20
2019-01-30T08:21:51.084Z,40.37
2019-01-30T08:24:18.968Z,38.63
2019-01-30T08:26:46.770Z,34.87
2019-01-30T08:29:15.169Z,37.93
2019-01-30T08:31:42.914Z,41.17
2019-01-30T08:34:10.717Z,34.97
2019-01-30T08:36:38.175Z,33.67
2019-01-30T08:39:07.528Z,33.70
2019-01-30T08:41:35.250Z,34.67
2019-01-30T08:44:03.110Z,36.30
2019-01-30T08:46:31.264Z,33.67
2019-01-30T08:48:58.773Z,38.03
2019-01-30T08:51:26.242Z,35.63
2019-01-30T08:53:54.338Z,36.43
2019-01-30T08:56:22.489Z,32.63
2019-01-30T08:58:50.186Z,32.47
2019-01-30T09:01:17.611Z,35.53
2019-01-30T09:03:45.055Z,33.97
2019-01-30T09:06:12.455Z,41.43
2019-01-30T09:08:39.900Z,34.90
2019-01-30T09:11:07.681Z,35.33
2019-01-30T09:13:36.135Z,35.37
2019-01-30T09:16:04.232Z,40.73
2019-01-30T09:18:32.070Z,45.77
2019-01-30T09:20:59.409Z,33.47
2019-01-30T09:23:26.956Z,35.53
2019-01-30T09:25:54.354Z,39.00
2019-01-30T09:28:22.783Z,40.70
2019-01-30T09:30:50.506Z,33.97
2019-01-30T09:33:25.677Z,34.60
2019-01-30T09:35:47.142Z,31.60
2019-01-30T09:38:14.731Z,31.07
2019-01-30T09:40:42.489Z,31.73
2019-01-30T09:43:10.234Z,30.03
2019-01-30T09:45:37.680Z,34.63
2019-01-30T09:48:06.094Z,33.70
2019-01-30T09:50:34.301Z,34.20
2019-01-30T09:53:02.225Z,37.23
2019-01-30T09:55:29.896Z,33.90
2019-01-30T09:57:57.655Z,36.97
2019-01-30T10:00:30.049Z,33.67
2019-01-30T10:03:16.944Z,35.03
2019-01-30T10:05:45.390Z,30.77
2019-01-30T10:08:13.227Z,30.77
2019-01-30T10:10:40.945Z,33.97
2019-01-30T10:13:08.622Z,27.47
2019-01-30T10:15:38.010Z,33.40
2019-01-30T10:18:05.944Z,33.57
2019-01-30T10:20:33.951Z,31.37
2019-01-30T10:23:02.053Z,37.03
2019-01-30T10:25:29.868Z,33.70
2019-01-30T10:27:57.696Z,38.67
2019-01-30T10:30:30.924Z,26.83
2019-01-30T10:33:04.813Z,29.50
2019-01-30T10:35:32.964Z,28.67
2019-01-30T10:38:00.453Z,28.53
2019-01-30T10:40:27.885Z,31.30
2019-01-30T10:42:57.396Z,28.30
2019-01-30T10:45:25.861Z,28.63
2019-01-30T10:47:53.607Z,30.27
2019-01-30T10:50:23.465Z,27.33
2019-01-30T10:52:51.158Z,27.60
2019-01-30T10:55:20.561Z,30.80
2019-01-30T10:57:49.667Z,27.70
2019-01-30T11:00:22.691Z,25.87
2019-01-30T11:02:50.156Z,26.97
2019-01-30T11:05:18.079Z,25.47
2019-01-30T11:07:45.738Z,32.43
2019-01-30T11:10:16.202Z,22.47
2019-01-30T11:12:43.658Z,23.37
2019-01-30T11:15:13.554Z,28.20
2019-01-30T11:17:41.042Z,27.70
2019-01-30T11:20:09.531Z,23.63
2019-01-30T11:22:36.982Z,25.47
2019-01-30T11:25:07.929Z,23.10
2019-01-30T11:27:36.485Z,22.17
2019-01-30T11:30:05.390Z,24.30
2019-01-30T11:32:33.130Z,30.30
2019-01-30T11:35:00.954Z,23.77
2019-01-30T11:37:28.428Z,23.70
2019-01-30T11:39:56.502Z,20.77
2019-01-30T11:42:23.898Z,20.60
2019-01-30T11:44:51.958Z,22.23
2019-01-30T11:47:19.689Z,17.73
2019-01-30T11:49:47.105Z,20.83
2019-01-30T11:52:14.622Z,20.70
2019-01-30T11:54:42.151Z,19.57
2019-01-30T11:57:09.603Z,18.73
2019-01-30T11:59:37.395Z,21.03
2019-01-30T12:02:05.100Z,26.03
2019-01-30T12:04:32.540Z,20.03
2019-01-30T12:07:00.008Z,23.07
2019-01-30T12:09:27.680Z,18.87
2019-01-30T12:11:55.524Z,22.13
2019-01-30T12:14:23.650Z,18.07
2019-01-30T12:16:51.103Z,23.40
2019-01-30T12:19:18.544Z,27.37
2019-01-30T12:21:46.698Z,20.90
2019-01-30T12:24:14.555Z,17.83
2019-01-30T12:26:42.021Z,17.47
2019-01-30T12:29:10.096Z,22.60
2019-01-30T12:31:37.555Z,21.50
2019-01-30T12:34:05.069Z,17.20
2019-01-30T12:36:33.124Z,22.03
2019-01-30T12:39:00.615Z,17.70
2019-01-30T12:41:28.346Z,19.83
2019-01-30T12:43:55.802Z,17.27
2019-01-30T12:46:23.595Z,15.97
2019-01-30T12:48:51.094Z,17.40
2019-01-30T12:51:19.030Z,17.17
2019-01-30T12:53:46.837Z,17.57
2019-01-30T12:56:14.262Z,13.37
2019-01-30T12:58:41.654Z,12.13
2019-01-30T13:01:09.132Z,16.27
2019-01-30T13:03:37.049Z,13.80
2019-01-30T13:06:04.521Z,10.53
2019-01-30T13:08:32.052Z,13.60
2019-01-30T13:10:59.451Z,10.77
2019-01-30T13:13:27.310Z,10.67
2019-01-30T13:15:55.079Z,8.47
2019-01-30T13:18:22.550Z,11.20
2019-01-30T13:20:50.063Z,15.00
2019-01-30T13:23:17.779Z,10.53
2019-01-30T13:25:45.642Z,11.10
2019-01-30T13:28:13.366Z,10.83
2019-01-30T13:30:43.476Z,8.47
2019-01-30T13:33:10.788Z,13.33
2019-01-30T13:35:38.516Z,9.87
2019-01-30T13:38:06.546Z,11.03
2019-01-30T13:40:36.715Z,8.67
2019-01-30T13:43:05.634Z,14.27
2019-01-30T13:45:33.044Z,10.00
2019-01-30T13:48:00.502Z,9.83
2019-01-30T13:50:28.508Z,8.67
2019-01-30T13:52:56.778Z,7.60
2019-01-30T13:55:24.810Z,12.37
2019-01-30T13:57:52.547Z,5.83
2019-01-30T14:00:22.969Z,4.57
2019-01-30T14:02:50.764Z,5.60
2019-01-30T14:05:18.563Z,4.63
2019-01-30T14:07:47.615Z,6.53
2019-01-30T14:10:15.652Z,6.87
2019-01-30T14:12:43.134Z,5.43
2019-01-30T14:15:12.994Z,4.47
2019-01-30T14:17:40.939Z,4.10
2019-01-30T14:20:10.475Z,3.27
2019-01-30T14:22:38.183Z,2.57
2019-01-30T14:25:06.383Z,2.13
2019-01-30T14:27:33.801Z,1.70
2019-01-30T14:30:01.481Z,2.93
2019-01-30T14:32:29.085Z,2.10
2019-01-30T14:34:57.247Z,2.20
2019-01-30T14:37:24.652Z,1.40
2019-01-30T14:39:53.618Z,1.93
2019-01-30T14:42:21.085Z,2.47
2019-01-30T14:44:48.800Z,3.43
2019-01-30T14:47:16.291Z,1.50
2019-01-30T14:49:44.055Z,2.47
2019-01-30T14:52:11.573Z,1.20
2019-01-30T14:54:39.072Z,3.23
2019-01-30T14:57:06.512Z,1.90
2019-01-30T14:59:34.340Z,1.60
2019-01-30T15:02:02.113Z,0.97
2019-01-30T15:04:29.792Z,3.20
2019-01-30T15:06:57.272Z,1.03
2019-01-30T15:09:25.040Z,0.73
2019-01-30T15:11:52.881Z,0.90
2019-01-30T15:14:20.597Z,1.67
2019-01-30T15:16:49.136Z,1.13
2019-01-30T15:19:16.920Z,2.33
2019-01-30T15:21:44.379Z,1.20
2019-01-30T15:24:11.978Z,2.30
2019-01-30T15:26:39.407Z,3.00
2019-01-30T15:29:07.216Z,2.73
2019-01-30T15:31:34.664Z,1.63
2019-01-30T15:34:02.454Z,2.60
2019-01-30T15:36:29.918Z,1.63
2019-01-30T15:38:57.762Z,2.83
2019-01-30T15:41:25.598Z,0.97
2019-01-30T15:43:53.045Z,1.27
2019-01-30T15:46:20.602Z,1.00
2019-01-30T15:48:48.346Z,2.23
2019-01-30T15:51:16.103Z,1.00
2019-01-30T15:53:43.878Z,1.30
2019-01-30T15:56:11.291Z,1.10
2019-01-30T15:58:39.156Z,1.37
2019-01-30T16:01:20.175Z,1.90
2019-01-30T16:03:47.959Z,1.07
2019-01-30T16:06:15.404Z,1.67
2019-01-30T16:08:43.192Z,1.83
2019-01-30T16:11:10.795Z,2.03
2019-01-30T16:13:46.712Z,2.07
2019-01-30T16:16:14.153Z,1.60
2019-01-30T16:18:41.655Z,2.73
2019-01-30T16:21:09.811Z,1.70
2019-01-30T16:23:37.446Z,1.50
2019-01-30T16:26:05.006Z,1.53
2019-01-30T16:28:33.232Z,1.77
2019-01-30T16:31:00.846Z,1.40
2019-01-30T16:33:28.327Z,2.03
2019-01-30T16:35:56.529Z,1.50
2019-01-30T16:38:24.007Z,2.17
2019-01-30T16:40:51.887Z,1.43
2019-01-30T16:43:19.627Z,6.73
2019-01-30T16:45:47.105Z,4.60
2019-01-30T16:48:14.990Z,2.63
2019-01-30T16:50:42.808Z,2.33
2019-01-30T16:53:10.717Z,2.20
2019-01-30T16:55:38.607Z,2.57
2019-01-30T16:58:08.432Z,2.63
2019-01-30T17:00:36.401Z,1.73
2019-01-30T17:03:04.364Z,1.82
2019-01-30T17:05:32.254Z,3.00
2019-01-30T17:08:00.152Z,3.33
2019-01-30T17:10:28.075Z,2.20
2019-01-30T17:12:55.642Z,2.67
2019-01-30T17:15:25.574Z,3.13
2019-01-30T17:17:53.168Z,3.63
2019-01-30T17:20:22.743Z,2.87
2019-01-30T17:22:56.395Z,4.27
2019-01-30T17:25:24.270Z,2.60
2019-01-30T17:27:51.862Z,4.47
2019-01-30T17:30:25.651Z,2.90
2019-01-30T17:32:53.696Z,2.60
2019-01-30T17:35:22.857Z,1.80
2019-01-30T17:37:52.981Z,6.93
2019-01-30T17:40:21.773Z,2.90
2019-01-30T17:42:49.710Z,3.93
2019-01-30T17:45:18.135Z,4.90
2019-01-30T17:47:46.054Z,4.10
2019-01-30T17:50:16.580Z,2.50
2019-01-30T17:52:44.261Z,2.80
2019-01-30T17:55:12.263Z,2.80
2019-01-30T17:57:40.386Z,4.60
2019-01-30T18:00:26.138Z,5.87
2019-01-30T18:02:54.252Z,4.77
2019-01-30T18:05:21.880Z,6.97
2019-01-30T18:07:49.741Z,4.53
2019-01-30T18:10:18.148Z,3.33
2019-01-30T18:12:46.246Z,4.63
2019-01-30T18:15:14.817Z,8.33
2019-01-30T18:17:42.774Z,6.97
2019-01-30T18:20:12.282Z,5.50
2019-01-30T18:22:40.398Z,5.23
2019-01-30T18:25:09.479Z,5.70
2019-01-30T18:27:37.947Z,3.73
2019-01-30T18:30:08.135Z,3.97
2019-01-30T18:32:36.558Z,5.20
2019-01-30T18:35:06.808Z,7.17
2019-01-30T18:37:36.750Z,4.43
2019-01-30T18:40:08.247Z,4.53
2019-01-30T18:42:36.286Z,5.67
2019-01-30T18:45:09.072Z,6.77
2019-01-30T18:47:37.832Z,6.10
2019-01-30T18:50:08.815Z,5.47
2019-01-30T18:52:41.061Z,5.93
2019-01-30T18:55:09.039Z,8.63
2019-01-30T18:57:37.331Z,8.70
2019-01-30T19:00:10.660Z,5.70
2019-01-30T19:02:40.215Z,7.03
2019-01-30T19:05:09.390Z,4.33
2019-01-30T19:07:37.569Z,4.77
2019-01-30T19:10:08.517Z,5.13
2019-01-30T19:12:36.605Z,5.07
2019-01-30T19:15:06.364Z,3.47
2019-01-30T19:17:37.424Z,4.20
2019-01-30T19:20:08.506Z,3.37
2019-01-30T19:22:37.092Z,4.57
2019-01-30T19:25:08.433Z,4.17
2019-01-30T19:27:37.165Z,5.23
2019-01-30T19:30:09.024Z,7.10
2019-01-30T19:32:38.128Z,5.90
2019-01-30T19:35:07.836Z,5.93
2019-01-30T19:37:37.226Z,7.17
2019-01-30T19:40:07.251Z,9.53
2019-01-30T19:42:36.586Z,6.97
2019-01-30T19:45:08.027Z,8.70
2019-01-30T19:47:36.652Z,6.30
2019-01-30T19:50:08.150Z,5.07
2019-01-30T19:52:37.384Z,3.10
2019-01-30T19:55:07.277Z,5.07
2019-01-30T19:57:37.449Z,5.03
2019-01-30T20:00:10.282Z,5.53
2019-01-30T20:02:41.329Z,7.13
2019-01-30T20:05:13.666Z,7.03
2019-01-30T20:07:45.038Z,7.10
2019-01-30T20:10:18.158Z,2.70
2019-01-30T20:12:47.131Z,5.80
2019-01-30T20:15:19.020Z,6.43
2019-01-30T20:17:52.158Z,5.30
2019-01-30T20:20:22.555Z,8.17
2019-01-30T20:22:53.074Z,6.27
2019-01-30T20:25:24.926Z,8.40
2019-01-30T20:28:00.292Z,6.60
2019-01-30T20:30:30.156Z,4.40
2019-01-30T20:32:59.241Z,5.20
2019-01-30T20:35:28.136Z,6.43
2019-01-30T20:38:00.387Z,7.93
2019-01-30T20:40:29.458Z,5.47
2019-01-30T20:43:00.469Z,5.73
2019-01-30T20:45:33.791Z,4.87
2019-01-30T20:48:00.835Z,8.13
2019-01-30T20:50:29.683Z,6.70
2019-01-30T20:52:58.489Z,5.33
2019-01-30T20:55:26.964Z,4.57
2019-01-30T20:58:00.838Z,5.30
2019-01-30T21:00:35.317Z,5.77
2019-01-30T21:03:08.498Z,7.20
2019-01-30T21:05:36.822Z,3.93
2019-01-30T21:08:06.891Z,5.27
2019-01-30T21:10:37.580Z,2.43
2019-01-30T21:13:09.286Z,4.10
2019-01-30T21:15:37.958Z,5.67
2019-01-30T21:18:18.001Z,5.40
2019-01-30T21:20:47.489Z,7.13
2019-01-30T21:23:15.867Z,5.57
2019-01-30T21:26:03.739Z,6.20
2019-01-30T21:28:36.018Z,5.73
2019-01-30T21:31:04.034Z,4.27
2019-01-30T21:33:32.542Z,7.47
2019-01-30T21:36:01.390Z,11.60
2019-01-30T21:38:36.577Z,6.47
2019-01-30T21:43:47.351Z,14.07
2019-01-30T21:46:18.562Z,5.43
2019-01-30T21:48:48.537Z,5.27
2019-01-30T21:51:16.164Z,7.90
2019-01-30T21:53:44.131Z,9.00
2019-01-30T21:56:19.121Z,6.10
2019-01-30T21:58:48.049Z,7.70
2019-01-30T22:01:15.715Z,8.43
2019-01-30T22:03:43.405Z,7.13
2019-01-30T22:06:11.193Z,6.43
2019-01-30T22:08:39.363Z,11.20
2019-01-30T22:11:07.675Z,13.40
2019-01-30T22:13:35.401Z,8.07
2019-01-30T22:16:03.612Z,7.30
2019-01-30T22:18:31.134Z,8.83
2019-01-30T22:20:58.789Z,7.53
2019-01-30T22:23:28.387Z,13.90
2019-01-30T22:26:01.592Z,8.80
2019-01-30T22:28:31.071Z,14.43
2019-01-30T22:30:58.656Z,7.00
2019-01-30T22:33:28.504Z,9.63
2019-01-30T22:35:56.851Z,12.17
2019-01-30T22:38:25.689Z,11.73
2019-01-30T22:40:53.499Z,10.63
2019-01-30T22:43:20.964Z,10.03
2019-01-30T22:45:51.116Z,10.20
2019-01-30T22:48:18.885Z,11.27
2019-01-30T22:50:47.153Z,10.50
2019-01-30T22:53:21.519Z,16.33
2019-01-30T22:55:54.990Z,10.33
2019-01-30T22:58:23.760Z,8.13
2019-01-30T23:01:27.134Z,9.87
2019-01-30T23:04:35.792Z,13.53
2019-01-30T23:07:28.268Z,12.50
2019-01-30T23:10:28.113Z,13.63
2019-01-30T23:13:09.306Z,6.93
2019-01-30T23:15:52.238Z,9.93
2019-01-30T23:18:49.039Z,10.33
2019-01-30T23:21:20.882Z,14.40
2019-01-30T23:24:30.333Z,13.62
2019-01-30T23:27:29.109Z,11.83
2019-01-30T23:30:20.402Z,9.17
2019-01-30T23:33:17.825Z,10.20
2019-01-30T23:36:10.011Z,8.97
2019-01-30T23:39:10.774Z,12.27
2019-01-30T23:42:08.567Z,10.80
2019-01-30T23:44:46.633Z,8.93
2019-01-30T23:47:37.449Z,8.57
2019-01-30T23:51:02.039Z,12.37
2019-01-30T23:54:19.049Z,7.33
2019-01-30T23:57:13.581Z,8.90
